Time;durP1;ratioP1;P1;durP2;ratioP2;P2;SDS_P1;SDS_P2;PMS_P1;PMS_P2;Temp;Humidity;BMP_temperature;BMP_pressure;BME280_temperature;BME280_humidity;BME280_pressure;Samples;Min_cycle;Max_cycle;Signal;HPM_P1;HPM_P2
2023/01/19 00:02:24;;;;;;;24.17;4.87;;;;;;;16.50;49.88;93454.25;5068387;28;20194;-52
2023/01/19 00:04:51;;;;;;;27.83;4.17;;;;;;;16.50;49.88;93403.41;5068521;28;20197;-51
2023/01/19 00:07:17;;;;;;;22.13;4.60;;;;;;;16.50;49.91;93418.91;5068693;28;20197;-51
2023/01/19 00:09:44;;;;;;;19.53;4.03;;;;;;;16.50;49.98;93428.44;5068617;28;20193;-52
2023/01/19 00:12:12;;;;;;;18.87;4.87;;;;;;;16.48;50.02;93433.78;5068237;28;20256;-49
2023/01/19 00:14:39;;;;;;;14.73;4.60;;;;;;;16.48;50.07;93440.72;5068387;28;20575;-51
2023/01/19 00:17:06;;;;;;;22.50;4.73;;;;;;;16.47;50.05;93445.09;5068359;28;20198;-52
2023/01/19 00:19:33;;;;;;;23.00;5.13;;;;;;;16.45;50.02;93416.16;5068243;28;20212;-50
2023/01/19 00:22:00;;;;;;;19.70;4.53;;;;;;;16.46;50.09;93465.97;5068790;28;20191;-52
2023/01/19 00:24:26;;;;;;;28.90;4.73;;;;;;;16.47;50.25;93447.69;5068958;28;20527;-50
2023/01/19 00:26:53;;;;;;;21.13;5.03;;;;;;;16.46;50.29;93478.88;5072820;28;20222;-50
2023/01/19 00:29:21;;;;;;;20.57;4.03;;;;;;;16.46;50.40;93443.53;5072107;28;20201;-49
2023/01/19 00:31:48;;;;;;;20.10;4.43;;;;;;;16.46;50.44;93463.38;5072383;28;20274;-49
2023/01/19 00:34:15;;;;;;;23.80;4.13;;;;;;;16.46;50.46;93437.56;5072377;28;20178;-50
2023/01/19 00:36:42;;;;;;;22.20;5.17;;;;;;;16.45;50.27;93462.59;5072421;28;20284;-50
2023/01/19 00:39:09;;;;;;;28.27;4.67;;;;;;;16.46;50.48;93484.03;5072017;28;20657;-50
2023/01/19 01:02:10;;;;;;;27.37;5.03;;;;;;;16.77;49.53;93449.78;5106436;27;20898;-50
2023/01/19 01:04:37;;;;;;;19.87;5.17;;;;;;;16.71;49.56;93441.06;5106362;28;20333;-49
2023/01/19 01:07:03;;;;;;;30.67;5.83;;;;;;;16.69;49.80;93460.31;5105981;28;20268;-48
2023/01/19 01:09:31;;;;;;;19.37;4.30;;;;;;;16.54;49.75;93437.34;5089755;28;20211;-48
2023/01/19 01:11:57;;;;;;;20.37;5.33;;;;;;;16.59;49.71;93453.00;5085922;28;20705;-48
2023/01/19 01:14:24;;;;;;;19.97;4.57;;;;;;;16.54;49.73;93417.50;5086235;28;20189;-46
2023/01/19 01:16:51;;;;;;;17.50;4.50;;;;;;;16.51;49.60;93456.59;5085939;28;20205;-47
2023/01/19 01:19:19;;;;;;;18.37;4.40;;;;;;;16.56;49.87;93443.88;5085367;28;20185;-50
2023/01/19 01:21:46;;;;;;;14.63;4.70;;;;;;;16.55;49.81;93454.41;5085790;28;20567;-46
2023/01/19 01:24:13;;;;;;;25.20;5.43;;;;;;;16.49;49.93;93435.38;5085221;28;20194;-51
2023/01/19 01:26:40;;;;;;;22.67;4.57;;;;;;;16.52;49.91;93478.03;5086048;28;20315;-48
2023/01/19 01:29:07;;;;;;;10.70;3.90;;;;;;;16.51;49.90;93453.25;5085922;28;20271;-45
2023/01/19 01:31:34;;;;;;;24.57;4.70;;;;;;;16.38;49.81;93435.22;5085838;28;20361;-46
2023/01/19 01:34:01;;;;;;;17.53;3.90;;;;;;;16.50;49.86;93478.25;5085587;28;20740;-46
2023/01/19 01:36:32;;;;;;;16.50;4.67;;;;;;;16.50;49.86;93473.09;5085581;28;20667;-47
2023/01/19 01:38:59;;;;;;;21.57;5.20;;;;;;;16.48;49.74;93457.00;5085492;28;20208;-47
2023/01/19 01:41:26;;;;;;;18.63;4.43;;;;;;;16.47;49.64;93485.59;5085563;28;20194;-50
2023/01/19 01:43:57;;;;;;;25.37;4.63;;;;;;;16.51;49.67;93484.19;5085481;28;20267;-49
2023/01/19 01:46:25;;;;;;;17.87;4.67;;;;;;;16.51;49.70;93486.78;5085664;28;20178;-46
2023/01/19 01:48:56;;;;;;;22.73;4.00;;;;;;;16.51;49.48;93481.63;5085225;28;20189;-48
2023/01/19 01:51:28;;;;;;;26.03;5.10;;;;;;;16.51;49.46;93479.84;5085341;28;20222;-50
2023/01/19 01:54:03;;;;;;;23.50;3.93;;;;;;;16.51;49.51;93481.63;5085138;28;20580;-46
2023/01/19 01:56:34;;;;;;;24.00;4.90;;;;;;;16.49;49.59;93456.03;5084870;28;20177;-46
2023/01/19 01:59:04;;;;;;;22.97;4.40;;;;;;;16.51;49.56;93474.66;5084470;28;20197;-46
2023/01/19 02:04:16;;;;;;;16.10;4.70;;;;;;;16.51;49.56;93479.03;5071688;28;20201;-47
2023/01/19 02:15:02;;;;;;;16.40;4.60;;;;;;;16.48;49.48;93487.19;5071270;28;20186;-45
2023/01/19 02:17:29;;;;;;;18.80;4.60;;;;;;;16.53;49.46;93500.25;5071724;28;20526;-48
2023/01/19 02:19:56;;;;;;;20.90;4.47;;;;;;;16.51;49.27;93455.81;5071908;28;20190;-47
2023/01/19 02:22:30;;;;;;;25.33;4.73;;;;;;;16.54;49.24;93453.63;5071307;28;20195;-47
2023/01/19 02:24:59;;;;;;;13.93;3.57;;;;;;;16.55;49.31;93495.72;5070986;28;20220;-46
2023/01/19 02:27:25;;;;;;;17.57;4.50;;;;;;;16.57;49.12;93470.47;5070755;28;20198;-48
2023/01/19 02:29:53;;;;;;;21.30;4.10;;;;;;;16.56;49.04;93480.00;5071338;28;20179;-46
2023/01/19 02:32:19;;;;;;;12.97;4.87;;;;;;;16.59;48.97;93478.03;5071221;28;20660;-46
2023/01/19 02:34:46;;;;;;;14.87;3.60;;;;;;;16.58;48.91;93492.72;5070974;28;20187;-47
2023/01/19 02:37:17;;;;;;;16.30;4.20;;;;;;;16.57;48.98;93460.16;5071356;28;20200;-47
2023/01/19 02:39:49;;;;;;;20.07;3.87;;;;;;;16.58;49.11;93463.53;5071482;28;20285;-45
2023/01/19 02:42:21;;;;;;;17.77;4.27;;;;;;;16.56;49.12;93480.00;5070636;28;20232;-51
2023/01/19 02:44:50;;;;;;;13.93;3.90;;;;;;;16.55;49.14;93468.09;5070883;28;20213;-49
2023/01/19 02:47:18;;;;;;;18.60;5.00;;;;;;;16.55;49.10;93469.91;5071245;28;20183;-48
2023/01/19 02:49:45;;;;;;;17.93;4.47;;;;;;;16.56;49.04;93487.75;5070969;28;20607;-48
2023/01/19 02:52:17;;;;;;;16.70;3.60;;;;;;;16.56;48.94;93467.09;5070567;28;20572;-46
2023/01/19 02:55:00;;;;;;;12.97;4.33;;;;;;;16.56;49.00;93507.59;5070575;28;20312;-49
2023/01/19 02:57:51;;;;;;;19.30;3.63;;;;;;;16.56;48.89;93486.97;5070695;28;20194;-48
2023/01/19 03:00:26;;;;;;;16.23;3.97;;;;;;;16.40;48.97;93435.78;5071436;28;20287;-49
2023/01/19 03:03:07;;;;;;;17.33;4.10;;;;;;;16.49;48.88;93483.59;5070595;28;20214;-47
2023/01/19 03:05:49;;;;;;;18.17;3.93;;;;;;;16.50;49.05;93487.78;5070731;28;20194;-48
2023/01/19 03:08:27;;;;;;;16.20;4.70;;;;;;;16.41;48.82;93469.16;5070131;28;20660;-50
2023/01/19 03:10:59;;;;;;;18.23;3.43;;;;;;;16.51;48.91;93458.41;5069387;28;20275;-49
2023/01/19 03:13:34;;;;;;;18.27;3.70;;;;;;;16.35;48.98;93410.59;5069266;28;20183;-49
2023/01/19 03:16:11;;;;;;;17.40;3.67;;;;;;;16.50;48.99;93529.06;5069706;28;20690;-47
2023/01/19 03:18:41;;;;;;;18.97;4.00;;;;;;;16.50;48.81;93469.72;5070302;28;20284;-49
2023/01/19 03:21:10;;;;;;;18.27;4.37;;;;;;;16.50;48.83;93451.66;5070099;28;20191;-50
2023/01/19 03:23:41;;;;;;;14.97;3.33;;;;;;;16.47;49.04;93501.88;5069846;28;20654;-48
2023/01/19 03:26:11;;;;;;;17.40;3.40;;;;;;;16.46;48.85;93459.00;5060585;28;20183;-47
2023/01/19 03:28:42;;;;;;;19.70;3.80;;;;;;;16.46;48.91;93502.09;5070300;28;20186;-47
2023/01/19 03:31:14;;;;;;;14.63;3.07;;;;;;;16.43;48.88;93467.16;5070225;28;20218;-47
2023/01/19 03:33:47;;;;;;;19.60;3.90;;;;;;;16.37;48.79;93438.81;5069967;28;20194;-48
2023/01/19 03:36:19;;;;;;;15.67;4.57;;;;;;;16.41;49.01;93458.03;5069588;28;20190;-46
2023/01/19 03:38:48;;;;;;;15.03;3.90;;;;;;;16.40;49.03;93464.19;5069718;28;20190;-47
2023/01/19 03:41:18;;;;;;;15.70;3.20;;;;;;;16.39;49.13;93437.59;5069777;28;20233;-47
2023/01/19 03:43:49;;;;;;;19.40;3.80;;;;;;;16.34;49.27;93512.22;5070161;28;20186;-48
2023/01/19 03:46:17;;;;;;;13.53;3.77;;;;;;;16.30;49.09;93457.66;5069065;28;20182;-47
2023/01/19 03:48:45;;;;;;;16.37;3.63;;;;;;;16.36;49.12;93453.47;5070029;28;20183;-46
2023/01/19 03:51:13;;;;;;;20.40;4.17;;;;;;;16.35;49.28;93451.09;5069522;28;20321;-46
2023/01/19 03:53:40;;;;;;;18.93;4.33;;;;;;;16.35;49.29;93458.84;5069429;28;20198;-50
2023/01/19 03:56:14;;;;;;;19.93;4.10;;;;;;;16.34;49.20;93465.78;5069081;28;20264;-48
2023/01/19 03:58:41;;;;;;;12.20;3.80;;;;;;;16.31;49.29;93469.56;5064542;28;20742;-46
2023/01/19 04:01:10;;;;;;;23.23;4.20;;;;;;;16.32;49.29;93444.56;5069257;28;20222;-47
2023/01/19 04:03:36;;;;;;;15.70;4.07;;;;;;;16.32;49.15;93452.31;5069652;28;20183;-48
2023/01/19 04:06:03;;;;;;;19.17;4.67;;;;;;;16.31;49.16;93454.06;5069480;28;20190;-48
2023/01/19 04:08:31;;;;;;;18.20;3.80;;;;;;;16.22;49.11;93462.25;5068834;28;20190;-47
2023/01/19 04:10:58;;;;;;;15.90;3.87;;;;;;;16.12;49.04;93428.34;5069853;28;20206;-48
2023/01/19 04:13:27;;;;;;;19.93;4.10;;;;;;;16.30;48.90;93389.78;5071605;28;20324;-48
2023/01/19 04:15:53;;;;;;;19.40;3.90;;;;;;;16.33;49.00;93445.38;5071584;28;20670;-51
2023/01/19 04:18:21;;;;;;;16.00;3.47;;;;;;;16.29;49.12;93468.97;5070150;28;20190;-49
2023/01/19 04:20:49;;;;;;;17.27;4.23;;;;;;;16.29;48.86;93445.75;5069567;28;20186;-48
2023/01/19 04:23:16;;;;;;;22.63;4.87;;;;;;;16.31;49.08;93432.66;5068712;28;20260;-46
2023/01/19 04:25:42;;;;;;;17.60;3.90;;;;;;;16.29;48.98;93426.91;5069008;28;20270;-46
2023/01/19 04:28:09;;;;;;;24.37;4.47;;;;;;;16.22;48.81;93397.75;5049154;28;20198;-49
2023/01/19 04:30:36;;;;;;;21.50;4.67;;;;;;;16.33;48.84;93435.03;5049463;28;20198;-49
2023/01/19 04:33:03;;;;;;;16.53;4.17;;;;;;;16.35;48.52;93425.31;5049123;28;20209;-48
2023/01/19 04:35:33;;;;;;;26.57;5.07;;;;;;;16.35;48.53;93425.31;5049319;28;20187;-45
2023/01/19 04:37:59;;;;;;;25.27;4.93;;;;;;;16.35;48.29;93459.63;5062517;28;20209;-48
2023/01/19 04:40:26;;;;;;;28.47;4.53;;;;;;;16.37;48.30;93429.28;5069156;28;20248;-46
2023/01/19 04:42:53;;;;;;;24.33;4.77;;;;;;;16.38;48.21;93443.75;5068671;28;20198;-48
2023/01/19 04:45:20;;;;;;;15.60;3.80;;;;;;;16.34;48.11;93426.31;5069447;28;20213;-47
2023/01/19 04:47:47;;;;;;;22.33;5.93;;;;;;;16.40;48.25;93454.66;5069023;28;20198;-52
2023/01/19 04:50:14;;;;;;;17.60;5.00;;;;;;;16.40;48.01;93435.78;5068944;28;20185;-48
2023/01/19 04:52:42;;;;;;;22.07;5.03;;;;;;;16.40;47.98;93457.22;5068885;28;20221;-46
2023/01/19 04:55:10;;;;;;;27.87;5.00;;;;;;;16.42;48.02;93444.94;5068743;28;20252;-48
2023/01/19 04:57:36;;;;;;;19.47;4.93;;;;;;;16.43;48.02;93437.97;5068922;28;20218;-50
2023/01/19 05:00:05;;;;;;;25.77;5.63;;;;;;;16.43;47.88;93443.13;5068704;28;20245;-49
2023/01/19 05:02:32;;;;;;;22.60;4.53;;;;;;;16.44;47.67;93447.28;5069167;28;20256;-47
2023/01/19 05:04:59;;;;;;;28.10;5.40;;;;;;;16.45;47.78;93452.28;5068607;28;20183;-48
2023/01/19 05:07:26;;;;;;;22.20;5.27;;;;;;;16.46;47.73;93478.88;5068696;28;20191;-47
2023/01/19 05:09:54;;;;;;;19.53;4.73;;;;;;;16.46;47.74;93481.44;5068155;28;20243;-46
2023/01/19 05:12:21;;;;;;;24.93;5.40;;;;;;;16.46;47.73;93481.44;5068525;28;20615;-46
2023/01/19 05:14:48;;;;;;;31.27;5.40;;;;;;;16.47;47.70;93503.66;5068484;28;20190;-47
2023/01/19 05:17:14;;;;;;;27.47;5.83;;;;;;;16.46;47.54;93484.81;5068907;28;20182;-47
2023/01/19 05:19:41;;;;;;;24.43;4.83;;;;;;;16.44;47.59;93483.41;5068267;28;20190;-48
2023/01/19 05:22:08;;;;;;;25.10;5.43;;;;;;;16.46;47.60;93510.63;5067845;28;20186;-49
2023/01/19 05:24:35;;;;;;;24.93;5.70;;;;;;;16.44;47.78;93491.94;5067796;28;20687;-46
2023/01/19 05:27:03;;;;;;;27.87;6.07;;;;;;;16.44;47.58;93481.63;5068362;28;20198;-48
2023/01/19 05:29:30;;;;;;;23.30;5.90;;;;;;;16.45;47.64;93495.31;5068633;28;20278;-48
2023/01/19 05:31:57;;;;;;;24.57;5.70;;;;;;;16.45;47.63;93462.59;5067943;28;20280;-46
2023/01/19 05:34:24;;;;;;;34.03;6.33;;;;;;;16.43;47.63;93463.78;5068539;28;20281;-48
2023/01/19 05:36:51;;;;;;;24.10;5.67;;;;;;;16.48;47.40;93492.34;5069168;28;20209;-48
2023/01/19 05:39:18;;;;;;;9.27;3.27;;;;;;;16.60;64.83;93474.44;5071935;28;20195;-48
2023/01/19 05:41:45;;;;;;;10.30;3.27;;;;;;;17.03;73.66;93457.38;5071527;28;20240;-53
2023/01/19 05:44:14;;;;;;;9.63;3.67;;;;;;;17.40;70.65;93490.34;5072491;28;20213;-48
2023/01/19 05:46:40;;;;;;;6.23;2.83;;;;;;;17.51;66.91;93482.72;5071426;28;20605;-49
2023/01/19 05:49:07;;;;;;;14.07;3.40;;;;;;;17.46;64.57;93474.81;5072167;28;20190;-47
2023/01/19 05:51:36;;;;;;;17.60;4.17;;;;;;;17.47;62.58;93501.44;5071646;28;20267;-49
2023/01/19 05:54:04;;;;;;;13.53;3.77;;;;;;;17.51;61.65;93510.38;5071783;28;20194;-47
2023/01/19 05:56:31;;;;;;;26.60;4.97;;;;;;;17.47;60.34;93512.56;5071702;28;20186;-47
2023/01/19 05:58:58;;;;;;;18.87;4.83;;;;;;;17.43;59.24;93472.63;5071984;28;20191;-50
2023/01/19 06:01:26;;;;;;;21.23;4.50;;;;;;;17.42;58.09;93516.78;5071597;28;20234;-49
2023/01/19 06:03:54;;;;;;;18.20;4.23;;;;;;;17.40;57.20;93487.75;5071724;28;20676;-50
2023/01/19 06:06:20;;;;;;;25.70;5.07;;;;;;;17.38;56.35;93521.56;5072045;28;20190;-47
2023/01/19 06:08:47;;;;;;;21.50;6.13;;;;;;;17.38;55.56;93506.06;5071340;28;20190;-47
2023/01/19 06:11:14;;;;;;;24.87;5.03;;;;;;;17.20;54.92;93487.91;5071799;28;20210;-47
2023/01/19 06:13:41;;;;;;;18.00;4.57;;;;;;;17.27;54.20;93491.22;5071754;28;20239;-48
2023/01/19 06:16:08;;;;;;;23.33;4.47;;;;;;;17.39;53.37;93493.94;5071546;28;20186;-47
2023/01/19 06:18:36;;;;;;;24.00;5.13;;;;;;;17.30;52.82;93504.53;5065365;28;20203;-47
2023/01/19 06:21:04;;;;;;;18.97;4.97;;;;;;;17.43;52.37;93510.63;5068794;28;20190;-47
2023/01/19 06:23:32;;;;;;;27.03;6.37;;;;;;;17.43;51.77;93508.03;5068232;28;20203;-47
2023/01/19 06:25:59;;;;;;;28.47;4.87;;;;;;;17.48;51.33;93506.38;5068970;28;20201;-47
2023/01/19 06:28:26;;;;;;;41.13;7.67;;;;;;;17.52;50.90;93504.97;5067685;28;20274;-48
2023/01/19 06:30:55;;;;;;;23.13;4.53;;;;;;;17.59;50.38;93511.91;5067664;28;20224;-48
2023/01/19 06:33:22;;;;;;;26.63;5.13;;;;;;;17.64;50.05;93548.25;5067769;28;20198;-48
2023/01/19 06:35:51;;;;;;;30.30;5.40;;;;;;;17.72;49.61;93535.09;5071359;28;20190;-47
2023/01/19 06:38:18;;;;;;;29.67;6.13;;;;;;;17.77;49.44;93536.06;5070054;28;20513;-48
2023/01/19 06:40:46;;;;;;;24.10;5.70;;;;;;;17.90;48.90;93548.09;5069160;28;20202;-47
2023/01/19 06:43:13;;;;;;;24.70;5.67;;;;;;;18.03;48.59;93545.41;5066217;28;20193;-47
2023/01/19 06:45:39;;;;;;;15.67;4.93;;;;;;;18.19;48.28;93564.00;5071103;28;20194;-47
2023/01/19 06:48:06;;;;;;;20.60;5.53;;;;;;;18.35;48.18;93573.84;5070595;28;20195;-46
2023/01/19 06:50:33;;;;;;;24.10;5.87;;;;;;;18.56;47.71;93573.41;5070026;28;20186;-47
2023/01/19 06:53:01;;;;;;;20.27;5.90;;;;;;;18.78;47.25;93563.47;5067420;28;20595;-51
2023/01/19 06:55:28;;;;;;;19.57;5.77;;;;;;;18.99;46.86;93567.41;5070149;28;20197;-46
2023/01/19 06:57:58;;;;;;;27.70;6.43;;;;;;;19.22;46.59;93566.75;5070028;28;20193;-47
2023/01/19 07:00:26;;;;;;;24.87;5.97;;;;;;;19.48;46.20;93577.81;5070200;28;20225;-46
2023/01/19 07:02:53;;;;;;;28.13;5.97;;;;;;;19.72;45.97;93589.06;5070549;28;20201;-48
2023/01/19 07:05:20;;;;;;;25.33;6.00;;;;;;;19.91;45.68;93580.22;5070135;28;20198;-48
2023/01/19 07:07:51;;;;;;;29.40;7.40;;;;;;;20.22;45.15;93586.16;5062991;28;20191;-46
2023/01/19 07:10:20;;;;;;;28.30;5.17;;;;;;;20.45;44.61;93564.59;5069864;28;20194;-46
2023/01/19 07:12:47;;;;;;;23.67;6.67;;;;;;;20.76;44.29;93589.47;5070992;28;20649;-47
2023/01/19 07:15:14;;;;;;;28.27;6.30;;;;;;;21.01;43.91;93590.00;5073004;28;20187;-47
2023/01/19 07:17:41;;;;;;;24.43;5.43;;;;;;;21.28;43.50;93586.88;5070396;28;20277;-46
2023/01/19 07:20:11;;;;;;;27.17;6.10;;;;;;;21.54;43.24;93586.38;5070199;28;20187;-48
2023/01/19 07:22:38;;;;;;;26.73;6.63;;;;;;;21.84;42.65;93574.91;5070052;28;20209;-47
2023/01/19 07:25:06;;;;;;;32.58;6.97;;;;;;;22.10;42.44;93598.78;5069468;28;20198;-47
2023/01/19 07:27:34;;;;;;;28.77;5.82;;;;;;;22.35;41.97;93594.00;5070348;28;20576;-46
2023/01/19 07:30:01;;;;;;;26.13;5.68;;;;;;;22.59;41.86;93592.03;5069885;28;20221;-46
2023/01/19 07:32:28;;;;;;;28.80;6.35;;;;;;;22.85;41.28;93600.22;5069723;28;20217;-47
2023/01/19 07:34:55;;;;;;;32.13;6.03;;;;;;;23.11;41.23;93588.31;5069320;28;20263;-47
2023/01/19 07:37:22;;;;;;;27.42;5.93;;;;;;;23.32;40.79;93616.25;5069367;28;20281;-47
2023/01/19 07:39:48;;;;;;;29.70;5.57;;;;;;;23.59;40.54;93584.97;5069428;28;20191;-47
2023/01/19 07:42:15;;;;;;;27.15;6.00;;;;;;;23.82;40.05;93583.91;5069203;28;20244;-46
2023/01/19 07:44:43;;;;;;;31.85;6.50;;;;;;;24.02;39.95;93620.66;5069733;28;20281;-49
2023/01/19 07:47:11;;;;;;;41.45;7.07;;;;;;;24.24;39.40;93591.06;5069341;28;20187;-47
2023/01/19 07:49:38;;;;;;;30.15;5.75;;;;;;;24.42;39.41;93603.78;5065228;28;20207;-48
2023/01/19 07:52:05;;;;;;;31.27;6.43;;;;;;;24.61;39.13;93593.75;5060478;28;20258;-49
2023/01/19 07:54:32;;;;;;;28.30;6.22;;;;;;;24.79;38.82;93597.78;5065657;28;20205;-48
2023/01/19 07:57:00;;;;;;;29.40;6.75;;;;;;;24.93;38.44;93596.28;5068229;28;20694;-46
2023/01/19 07:59:29;;;;;;;29.50;5.45;;;;;;;25.07;38.17;93611.53;5067632;28;20645;-47
2023/01/19 08:01:58;;;;;;;25.10;6.15;;;;;;;25.12;38.03;93646.38;5065573;28;20641;-47
2023/01/19 08:04:25;;;;;;;27.10;6.70;;;;;;;25.11;37.94;93617.84;5066194;28;20190;-46
2023/01/19 08:06:52;;;;;;;32.03;5.90;;;;;;;25.05;37.98;93614.41;5068627;28;20225;-48
2023/01/19 08:09:19;;;;;;;39.40;7.15;;;;;;;24.96;38.41;93601.03;5068058;28;20603;-48
2023/01/19 08:11:46;;;;;;;27.55;7.47;;;;;;;24.93;38.25;93611.19;5066136;28;20221;-49
2023/01/19 08:14:13;;;;;;;22.88;5.72;;;;;;;24.96;38.27;93614.09;5065305;28;20194;-48
2023/01/19 08:16:40;;;;;;;26.13;6.13;;;;;;;24.99;37.83;93638.94;5068741;28;20209;-46
2023/01/19 08:19:08;;;;;;;25.55;6.72;;;;;;;24.93;37.80;93616.44;5065011;28;20271;-46
2023/01/19 08:21:37;;;;;;;17.02;5.00;;;;;;;24.72;37.91;93595.38;5065512;28;20187;-46
2023/01/19 08:24:04;;;;;;;27.95;5.88;;;;;;;25.17;37.25;93650.84;5066588;28;20205;-46
2023/01/19 08:26:33;;;;;;;25.00;6.20;;;;;;;25.36;36.99;93583.16;5067489;28;20236;-48
2023/01/19 08:29:02;;;;;;;29.30;6.45;;;;;;;25.31;37.17;93635.50;5066749;28;20190;-48
2023/01/19 08:31:29;;;;;;;28.67;6.78;;;;;;;25.14;36.95;93640.91;5065788;28;20221;-46
2023/01/19 08:33:56;;;;;;;22.63;5.57;;;;;;;24.94;36.97;93638.91;5064128;28;20718;-47
2023/01/19 08:36:24;;;;;;;25.52;6.22;;;;;;;24.76;36.67;93627.81;5065668;28;20194;-47
2023/01/19 08:38:51;;;;;;;34.40;6.15;;;;;;;24.49;37.51;93620.06;5068057;28;20210;-48
2023/01/19 08:41:18;;;;;;;25.35;6.78;;;;;;;24.49;37.32;93638.34;5066310;28;20198;-48
2023/01/19 08:43:45;;;;;;;24.98;7.03;;;;;;;24.37;37.38;93658.63;5068074;28;20315;-47
2023/01/19 08:46:15;;;;;;;23.38;5.45;;;;;;;24.27;37.14;93640.22;5066256;28;20277;-53
2023/01/19 08:48:44;;;;;;;26.23;6.53;;;;;;;24.17;37.25;93650.56;5066245;28;20248;-45
2023/01/19 08:51:11;;;;;;;34.95;7.05;;;;;;;24.06;37.18;93656.75;5065396;28;20231;-46
2023/01/19 08:53:40;;;;;;;20.23;6.20;;;;;;;24.02;37.21;93635.56;5066412;28;20221;-46
2023/01/19 08:56:11;;;;;;;32.65;6.95;;;;;;;23.96;37.14;93647.78;5066307;28;20194;-45
2023/01/19 08:58:38;;;;;;;29.92;6.68;;;;;;;23.97;37.24;93651.97;5066291;28;20201;-46
2023/01/19 09:01:05;;;;;;;36.97;6.38;;;;;;;23.90;37.38;93667.03;5062301;28;20221;-45
2023/01/19 09:03:32;;;;;;;33.80;6.40;;;;;;;23.81;37.43;93671.09;5066115;28;20312;-45
2023/01/19 09:05:59;;;;;;;27.67;5.88;;;;;;;23.60;37.24;93654.41;5067216;28;20190;-46
2023/01/19 09:08:26;;;;;;;38.60;6.80;;;;;;;23.55;37.29;93670.00;5066097;28;20256;-46
2023/01/19 09:10:54;;;;;;;27.20;6.57;;;;;;;23.47;37.33;93670.41;5064497;28;20198;-47
2023/01/19 09:13:21;;;;;;;23.15;5.75;;;;;;;23.41;37.65;93664.34;5068684;28;20213;-48
2023/01/19 09:15:48;;;;;;;32.22;5.57;;;;;;;23.29;37.36;93640.19;5071058;28;20279;-47
2023/01/19 09:18:17;;;;;;;26.33;6.80;;;;;;;23.28;37.55;93644.63;5071322;28;20187;-46
2023/01/19 09:20:45;;;;;;;22.27;6.15;;;;;;;23.23;37.84;93657.63;5070515;28;20205;-46
2023/01/19 09:23:14;;;;;;;20.45;5.45;;;;;;;23.18;37.95;93638.47;5071903;28;20197;-46
2023/01/19 09:25:42;;;;;;;20.77;6.05;;;;;;;23.11;37.92;93633.44;5070154;28;20644;-48
2023/01/19 09:28:13;;;;;;;30.48;6.30;;;;;;;23.09;38.04;93658.97;5067585;28;20240;-45
2023/01/19 09:30:41;;;;;;;25.27;6.55;;;;;;;23.04;37.87;93630.22;5070793;28;20198;-46
2023/01/19 09:33:10;;;;;;;27.10;6.78;;;;;;;23.02;38.15;93655.75;5069746;28;20214;-47
2023/01/19 09:35:38;;;;;;;22.83;5.93;;;;;;;22.98;37.85;93645.00;5070536;28;20194;-46
2023/01/19 09:38:06;;;;;;;25.48;7.18;;;;;;;22.91;38.23;93612.31;5070406;28;20191;-46
2023/01/19 09:40:33;;;;;;;28.17;5.30;;;;;;;22.90;38.56;93655.06;5068692;28;20207;-47
2023/01/19 09:43:12;;;;;;;24.25;5.57;;;;;;;22.89;38.01;93614.34;5070338;28;20190;-45
2023/01/19 09:45:48;;;;;;;21.90;5.60;;;;;;;22.84;38.14;93620.28;5069282;28;20626;-46
2023/01/19 09:48:28;;;;;;;22.05;5.32;;;;;;;22.80;38.38;93624.41;5068417;28;20283;-49
2023/01/19 09:50:59;;;;;;;17.70;4.95;;;;;;;22.75;38.55;93619.91;5070617;28;20234;-47
2023/01/19 09:53:39;;;;;;;23.50;5.90;;;;;;;22.73;38.46;93618.56;5072802;28;20230;-53
2023/01/19 09:56:10;;;;;;;28.75;5.28;;;;;;;22.69;38.55;93586.16;5069689;28;20209;-49
2023/01/19 09:58:37;;;;;;;16.85;4.82;;;;;;;22.66;38.41;93605.66;5066475;28;20349;-47
2023/01/19 10:01:21;;;;;;;15.43;4.60;;;;;;;22.62;38.48;93586.31;5068333;28;20611;-51
2023/01/19 10:03:52;;;;;;;22.77;6.55;;;;;;;22.61;38.45;93597.78;5068120;28;20190;-52
2023/01/19 10:06:19;;;;;;;21.48;5.15;;;;;;;22.50;38.97;93578.63;5067413;28;20194;-55
2023/01/19 10:08:57;;;;;;;16.67;4.68;;;;;;;22.57;38.79;93596.69;5068316;28;20664;-49
2023/01/19 10:11:32;;;;;;;18.35;5.57;;;;;;;22.39;38.56;93563.06;5068887;28;20253;-48
2023/01/19 10:13:59;;;;;;;15.35;4.30;;;;;;;22.54;38.66;93597.97;5068011;28;20233;-47
2023/01/19 10:16:33;;;;;;;22.55;5.53;;;;;;;22.53;38.73;93578.13;5067624;28;20212;-46
2023/01/19 10:19:09;;;;;;;16.40;4.30;;;;;;;22.51;38.69;93582.00;5070501;28;20192;-49
2023/01/19 10:21:41;;;;;;;25.73;5.60;;;;;;;22.51;38.90;93572.38;5069715;28;20222;-47
2023/01/19 10:24:16;;;;;;;20.88;5.07;;;;;;;22.52;38.97;93610.41;5069030;28;20195;-50
2023/01/19 10:26:48;;;;;;;14.88;4.70;;;;;;;22.49;39.02;93582.22;5066783;28;20573;-47
2023/01/19 10:29:28;;;;;;;21.15;4.82;;;;;;;22.50;38.97;93590.84;5066896;28;20575;-45
2023/01/19 10:32:04;;;;;;;14.85;4.38;;;;;;;22.38;38.71;93562.28;5067967;28;20277;-48
2023/01/19 10:34:32;;;;;;;14.75;4.45;;;;;;;22.51;39.12;93592.44;5067711;28;20684;-52
2023/01/19 10:37:04;;;;;;;18.17;4.03;;;;;;;22.49;38.95;93566.59;5067285;28;20195;-46
2023/01/19 10:39:31;;;;;;;18.00;4.63;;;;;;;22.46;39.21;93605.38;5068498;28;20198;-48
2023/01/19 10:42:02;;;;;;;19.48;4.05;;;;;;;22.41;38.94;93597.47;5066885;28;20197;-46
2023/01/19 10:44:34;;;;;;;13.27;3.58;;;;;;;22.41;38.88;93579.22;5069877;28;20186;-46
2023/01/19 10:47:05;;;;;;;15.15;4.28;;;;;;;22.36;38.87;93584.38;5068285;28;20278;-46
2023/01/19 10:49:37;;;;;;;22.60;5.13;;;;;;;22.40;38.74;93588.09;5067498;28;20247;-47
2023/01/19 10:52:06;;;;;;;22.80;4.60;;;;;;;22.35;39.04;93575.78;5068492;28;20206;-47
2023/01/19 10:54:36;;;;;;;16.77;4.07;;;;;;;22.27;38.89;93578.78;5068220;28;20219;-47
2023/01/19 10:57:06;;;;;;;12.55;3.92;;;;;;;22.25;39.31;93568.59;5070210;28;20331;-47
2023/01/19 10:59:35;;;;;;;13.68;4.30;;;;;;;22.27;38.98;93579.56;5061427;28;20199;-46
2023/01/19 11:02:15;;;;;;;15.02;4.15;;;;;;;22.31;38.90;93566.06;5067444;28;20233;-47
2023/01/19 11:04:44;;;;;;;13.57;4.10;;;;;;;22.34;38.97;93594.25;5067662;28;20220;-48
2023/01/19 11:07:18;;;;;;;20.05;4.35;;;;;;;22.33;38.81;93580.44;5068686;28;20378;-47
2023/01/19 11:09:45;;;;;;;13.27;4.18;;;;;;;22.29;38.88;93574.91;5069688;28;20198;-47
2023/01/19 11:12:20;;;;;;;14.93;3.83;;;;;;;22.33;38.92;93559.59;5068551;28;20220;-47
2023/01/19 11:14:48;;;;;;;12.15;3.15;;;;;;;22.37;38.75;93549.50;5065775;28;20626;-47
2023/01/19 11:17:23;;;;;;;10.63;3.03;;;;;;;22.42;38.62;93536.53;5068906;28;20190;-52
2023/01/19 11:19:57;;;;;;;20.17;4.40;;;;;;;22.41;38.88;93548.78;5068154;28;20671;-49
2023/01/19 11:22:28;;;;;;;14.18;3.70;;;;;;;22.40;38.52;93530.78;5065716;28;20684;-47
2023/01/19 11:24:59;;;;;;;11.38;3.53;;;;;;;22.53;38.64;93543.47;5069086;28;20557;-49
2023/01/19 11:27:28;;;;;;;11.88;3.88;;;;;;;22.56;38.80;93510.94;5065816;28;20191;-47
2023/01/19 11:30:04;;;;;;;13.63;3.40;;;;;;;22.60;38.59;93540.69;5067998;28;20210;-49
2023/01/19 11:32:35;;;;;;;14.45;3.90;;;;;;;22.64;38.84;93545.19;5066035;28;20233;-48
2023/01/19 11:35:02;;;;;;;10.70;3.40;;;;;;;22.59;38.86;93531.31;5067982;28;20205;-48
2023/01/19 11:37:33;;;;;;;17.42;3.95;;;;;;;22.61;38.64;93532.63;5065046;28;20240;-47
2023/01/19 11:40:03;;;;;;;15.50;4.15;;;;;;;22.63;38.90;93556.66;5066884;28;20195;-46
2023/01/19 11:42:33;;;;;;;15.32;4.20;;;;;;;22.53;38.84;93533.03;5065566;28;20267;-49
2023/01/19 11:45:04;;;;;;;15.93;3.85;;;;;;;22.64;39.10;93529.56;5067263;28;20214;-47
2023/01/19 11:47:39;;;;;;;13.00;3.38;;;;;;;22.59;38.95;93510.47;5065725;28;20191;-47
2023/01/19 11:50:12;;;;;;;8.82;3.33;;;;;;;22.53;39.38;93546.84;5067067;28;20208;-47
2023/01/19 11:52:45;;;;;;;7.28;2.75;;;;;;;22.49;39.26;93529.34;5063828;28;20247;-49
2023/01/19 11:55:19;;;;;;;11.40;3.42;;;;;;;22.48;39.27;93517.34;5065248;28;20281;-49
2023/01/19 11:57:49;;;;;;;12.45;4.05;;;;;;;22.50;39.25;93510.88;5067319;28;20186;-47
2023/01/19 12:00:24;;;;;;;14.40;3.63;;;;;;;22.53;39.38;93533.81;5064191;28;20218;-46
2023/01/19 12:02:57;;;;;;;7.20;3.83;;;;;;;22.52;39.22;93508.03;5064748;28;20181;-48
2023/01/19 12:05:30;;;;;;;11.15;3.65;;;;;;;22.48;39.53;93525.94;5066065;28;20218;-47